sensor_id;sensor_type;location;lat;lon;timestamp;pressure;altitude;pressure_sealevel;temperature;humidity
74327;BME280;62745;51.060;13.786;2023-01-09T00:00:07;98881.31;;;5.83;84.59
74327;BME280;62745;51.060;13.786;2023-01-09T00:02:33;98887.63;;;5.82;84.81
74327;BME280;62745;51.060;13.786;2023-01-09T00:04:58;98874.19;;;5.83;84.49
74327;BME280;62745;51.060;13.786;2023-01-09T00:07:24;98872.84;;;5.94;84.45
74327;BME280;62745;51.060;13.786;2023-01-09T00:09:49;98864.91;;;5.94;84.33
74327;BME280;62745;51.060;13.786;2023-01-09T00:12:14;98863.66;;;5.90;84.58
74327;BME280;62745;51.060;13.786;2023-01-09T00:14:40;98859.50;;;5.87;84.23
74327;BME280;62745;51.060;13.786;2023-01-09T00:17:05;98867.47;;;5.87;84.47
74327;BME280;62745;51.060;13.786;2023-01-09T00:19:30;98860.00;;;5.97;83.68
74327;BME280;62745;51.060;13.786;2023-01-09T00:21:55;98857.56;;;5.96;83.74
74327;BME280;62745;51.060;13.786;2023-01-09T00:24:20;98859.19;;;5.97;83.62
74327;BME280;62745;51.060;13.786;2023-01-09T00:26:46;98856.75;;;6.02;83.46
74327;BME280;62745;51.060;13.786;2023-01-09T00:29:11;98851.03;;;5.92;84.00
74327;BME280;62745;51.060;13.786;2023-01-09T00:31:36;98840.78;;;5.89;83.79
74327;BME280;62745;51.060;13.786;2023-01-09T00:34:04;98841.63;;;5.89;83.83
74327;BME280;62745;51.060;13.786;2023-01-09T00:36:30;98838.97;;;5.89;83.94
74327;BME280;62745;51.060;13.786;2023-01-09T00:38:55;98840.34;;;5.85;84.03
74327;BME280;62745;51.060;13.786;2023-01-09T00:41:28;98838.28;;;5.81;83.94
74327;BME280;62745;51.060;13.786;2023-01-09T00:43:56;98831.13;;;5.74;84.45
74327;BME280;62745;51.060;13.786;2023-01-09T00:46:26;98825.22;;;5.72;84.40
74327;BME280;62745;51.060;13.786;2023-01-09T00:48:53;98820.94;;;5.71;84.96
74327;BME280;62745;51.060;13.786;2023-01-09T00:51:19;98821.34;;;5.75;84.60
74327;BME280;62745;51.060;13.786;2023-01-09T00:53:45;98825.84;;;5.74;84.27
74327;BME280;62745;51.060;13.786;2023-01-09T00:56:14;98811.16;;;5.72;85.11
74327;BME280;62745;51.060;13.786;2023-01-09T00:58:40;98816.81;;;5.69;84.81
74327;BME280;62745;51.060;13.786;2023-01-09T01:01:06;98811.97;;;5.72;84.58
74327;BME280;62745;51.060;13.786;2023-01-09T01:03:31;98813.34;;;5.68;84.55
74327;BME280;62745;51.060;13.786;2023-01-09T01:05:57;98808.03;;;5.62;84.68
74327;BME280;62745;51.060;13.786;2023-01-09T01:08:41;98796.41;;;5.63;84.93
74327;BME280;62745;51.060;13.786;2023-01-09T01:11:08;98803.56;;;5.62;84.97
74327;BME280;62745;51.060;13.786;2023-01-09T01:13:36;98790.91;;;5.58;84.74
74327;BME280;62745;51.060;13.786;2023-01-09T01:16:06;98796.19;;;5.58;84.60
74327;BME280;62745;51.060;13.786;2023-01-09T01:18:34;98795.13;;;5.52;84.99
74327;BME280;62745;51.060;13.786;2023-01-09T01:21:00;98783.09;;;5.50;84.87
74327;BME280;62745;51.060;13.786;2023-01-09T01:23:25;98777.22;;;5.54;84.95
74327;BME280;62745;51.060;13.786;2023-01-09T01:25:50;98777.84;;;5.56;84.94
74327;BME280;62745;51.060;13.786;2023-01-09T01:28:16;98767.81;;;5.52;84.97
74327;BME280;62745;51.060;13.786;2023-01-09T01:30:42;98766.00;;;5.52;85.05
74327;BME280;62745;51.060;13.786;2023-01-09T01:33:08;98763.53;;;5.51;84.71
74327;BME280;62745;51.060;13.786;2023-01-09T01:35:34;98760.91;;;5.51;84.64
74327;BME280;62745;51.060;13.786;2023-01-09T01:37:59;98767.22;;;5.50;84.43
74327;BME280;62745;51.060;13.786;2023-01-09T01:40:25;98766.81;;;5.53;84.60
74327;BME280;62745;51.060;13.786;2023-01-09T01:42:52;98765.03;;;5.60;84.37
74327;BME280;62745;51.060;13.786;2023-01-09T01:45:22;98758.53;;;5.62;84.41
74327;BME280;62745;51.060;13.786;2023-01-09T01:47:53;98750.38;;;5.64;84.04
74327;BME280;62745;51.060;13.786;2023-01-09T01:50:28;98751.59;;;5.68;83.97
74327;BME280;62745;51.060;13.786;2023-01-09T01:53:09;98745.09;;;5.70;83.55
74327;BME280;62745;51.060;13.786;2023-01-09T01:55:41;98734.69;;;5.69;83.77
74327;BME280;62745;51.060;13.786;2023-01-09T01:58:10;98727.94;;;5.60;84.21
74327;BME280;62745;51.060;13.786;2023-01-09T02:00:41;98728.78;;;5.67;83.85
74327;BME280;62745;51.060;13.786;2023-01-09T02:03:07;98716.34;;;5.61;84.14
74327;BME280;62745;51.060;13.786;2023-01-09T02:05:35;98726.94;;;5.67;83.70
74327;BME280;62745;51.060;13.786;2023-01-09T02:08:00;98730.66;;;5.73;83.04
74327;BME280;62745;51.060;13.786;2023-01-09T02:10:26;98723.91;;;5.70;83.45
74327;BME280;62745;51.060;13.786;2023-01-09T02:12:51;98720.44;;;5.70;83.24
74327;BME280;62745;51.060;13.786;2023-01-09T02:15:17;98721.06;;;5.72;83.15
74327;BME280;62745;51.060;13.786;2023-01-09T02:23:22;98712.31;;;5.71;
74327;BME280;62745;51.060;13.786;2023-01-09T02:26:05;98703.97;;;5.74;83.16
74327;BME280;62745;51.060;13.786;2023-01-09T02:29:00;98690.72;;;5.74;83.20
74327;BME280;62745;51.060;13.786;2023-01-09T02:31:52;98684.19;;;5.77;82.57
74327;BME280;62745;51.060;13.786;2023-01-09T02:34:55;98690.31;;;5.78;82.84
74327;BME280;62745;51.060;13.786;2023-01-09T02:37:59;98682.31;;;5.71;82.76
74327;BME280;62745;51.060;13.786;2023-01-09T02:40:35;98688.44;;;5.65;83.32
74327;BME280;62745;51.060;13.786;2023-01-09T02:43:04;98685.19;;;5.69;82.84
74327;BME280;62745;51.060;13.786;2023-01-09T02:45:30;98686.63;;;5.79;82.95
74327;BME280;62745;51.060;13.786;2023-01-09T02:47:55;98677.47;;;5.74;83.40
74327;BME280;62745;51.060;13.786;2023-01-09T02:50:31;98656.22;;;5.68;82.98
74327;BME280;62745;51.060;13.786;2023-01-09T02:53:26;98672.16;;;5.81;82.66
74327;BME280;62745;51.060;13.786;2023-01-09T02:56:18;98679.91;;;5.76;83.85
74327;BME280;62745;51.060;13.786;2023-01-09T02:59:09;98686.22;;;5.75;84.69
74327;BME280;62745;51.060;13.786;2023-01-09T03:02:44;98682.31;;;5.71;85.58
74327;BME280;62745;51.060;13.786;2023-01-09T03:05:17;98681.28;;;5.65;86.59
74327;BME280;62745;51.060;13.786;2023-01-09T03:07:52;98673.97;;;5.67;87.31
74327;BME280;62745;51.060;13.786;2023-01-09T03:10:24;98683.94;;;5.65;86.78
74327;BME280;62745;51.060;13.786;2023-01-09T03:12:52;98687.00;;;5.62;87.19
74327;BME280;62745;51.060;13.786;2023-01-09T03:15:21;98686.00;;;5.70;87.37
74327;BME280;62745;51.060;13.786;2023-01-09T03:17:49;98678.03;;;5.63;88.13
74327;BME280;62745;51.060;13.786;2023-01-09T03:20:18;98670.44;;;5.54;88.63
74327;BME280;62745;51.060;13.786;2023-01-09T03:22:55;98677.38;;;5.48;88.46
74327;BME280;62745;51.060;13.786;2023-01-09T03:25:21;98672.28;;;5.53;89.27
74327;BME280;62745;51.060;13.786;2023-01-09T03:27:49;98662.50;;;5.47;90.20
74327;BME280;62745;51.060;13.786;2023-01-09T03:30:16;98663.53;;;5.53;90.22
74327;BME280;62745;51.060;13.786;2023-01-09T03:32:41;98664.94;;;5.42;91.07
74327;BME280;62745;51.060;13.786;2023-01-09T03:35:07;98658.41;;;5.38;91.30
74327;BME280;62745;51.060;13.786;2023-01-09T03:37:32;98659.59;;;5.35;91.91
74327;BME280;62745;51.060;13.786;2023-01-09T03:39:58;98656.38;;;5.40;91.68
74327;BME280;62745;51.060;13.786;2023-01-09T03:42:23;98664.06;;;5.35;91.39
74327;BME280;62745;51.060;13.786;2023-01-09T03:44:48;98654.75;;;5.46;91.86
74327;BME280;62745;51.060;13.786;2023-01-09T03:47:14;98654.16;;;5.50;91.98
74327;BME280;62745;51.060;13.786;2023-01-09T03:49:40;98644.41;;;5.57;92.87
74327;BME280;62745;51.060;13.786;2023-01-09T03:52:05;98639.88;;;5.51;92.36
74327;BME280;62745;51.060;13.786;2023-01-09T03:54:30;98637.47;;;5.56;92.19
74327;BME280;62745;51.060;13.786;2023-01-09T03:56:55;98635.25;;;5.60;91.55
74327;BME280;62745;51.060;13.786;2023-01-09T03:59:21;98624.44;;;5.61;91.59
74327;BME280;62745;51.060;13.786;2023-01-09T04:01:46;98616.50;;;5.61;91.54
74327;BME280;62745;51.060;13.786;2023-01-09T04:04:11;98622.81;;;5.60;90.50
74327;BME280;62745;51.060;13.786;2023-01-09T04:06:36;98616.06;;;5.51;90.62
74327;BME280;62745;51.060;13.786;2023-01-09T04:09:02;98623.38;;;5.42;91.31
74327;BME280;62745;51.060;13.786;2023-01-09T04:11:27;98631.13;;;5.44;91.48
74327;BME280;62745;51.060;13.786;2023-01-09T04:13:52;98623.78;;;5.46;91.38
74327;BME280;62745;51.060;13.786;2023-01-09T04:16:17;98618.50;;;5.53;92.02
74327;BME280;62745;51.060;13.786;2023-01-09T04:18:43;98610.19;;;5.62;91.12
74327;BME280;62745;51.060;13.786;2023-01-09T04:21:08;98604.31;;;5.73;91.12
74327;BME280;62745;51.060;13.786;2023-01-09T04:23:33;98606.50;;;5.57;91.61
74327;BME280;62745;51.060;13.786;2023-01-09T04:25:58;98608.72;;;5.47;91.69
74327;BME280;62745;51.060;13.786;2023-01-09T04:28:24;98604.22;;;5.54;91.84
74327;BME280;62745;51.060;13.786;2023-01-09T04:30:49;98595.69;;;5.52;91.53
74327;BME280;62745;51.060;13.786;2023-01-09T04:33:14;98605.44;;;5.44;92.71
74327;BME280;62745;51.060;13.786;2023-01-09T04:35:39;98596.06;;;5.42;92.80
74327;BME280;62745;51.060;13.786;2023-01-09T04:38:05;98595.88;;;5.43;92.81
74327;BME280;62745;51.060;13.786;2023-01-09T04:40:30;98590.81;;;5.55;92.19
74327;BME280;62745;51.060;13.786;2023-01-09T04:42:55;98603.63;;;5.52;91.89
74327;BME280;62745;51.060;13.786;2023-01-09T04:45:20;98596.50;;;5.52;91.26
74327;BME280;62745;51.060;13.786;2023-01-09T04:47:46;98599.16;;;5.52;92.01
74327;BME280;62745;51.060;13.786;2023-01-09T04:50:12;98594.03;;;5.51;91.98
74327;BME280;62745;51.060;13.786;2023-01-09T04:52:37;98596.28;;;5.47;92.36
74327;BME280;62745;51.060;13.786;2023-01-09T04:55:03;98588.91;;;5.36;91.99
74327;BME280;62745;51.060;13.786;2023-01-09T04:57:29;98593.19;;;5.37;92.15
74327;BME280;62745;51.060;13.786;2023-01-09T04:59:54;98589.34;;;5.46;92.38
74327;BME280;62745;51.060;13.786;2023-01-09T05:02:19;98586.31;;;5.49;91.47
74327;BME280;62745;51.060;13.786;2023-01-09T05:04:45;98586.72;;;5.53;91.35
74327;BME280;62745;51.060;13.786;2023-01-09T05:07:10;98574.09;;;5.48;91.21
74327;BME280;62745;51.060;13.786;2023-01-09T05:09:35;98564.50;;;5.54;90.88
74327;BME280;62745;51.060;13.786;2023-01-09T05:12:00;98568.59;;;5.50;91.28
74327;BME280;62745;51.060;13.786;2023-01-09T05:14:26;98562.88;;;5.53;90.63
74327;BME280;62745;51.060;13.786;2023-01-09T05:16:51;98575.75;;;5.62;89.97
74327;BME280;62745;51.060;13.786;2023-01-09T05:19:16;98563.69;;;5.53;90.14
74327;BME280;62745;51.060;13.786;2023-01-09T05:21:41;98562.50;;;5.56;90.72
74327;BME280;62745;51.060;13.786;2023-01-09T05:24:07;98572.88;;;5.51;89.41
74327;BME280;62745;51.060;13.786;2023-01-09T05:26:32;98570.00;;;5.52;89.14
74327;BME280;62745;51.060;13.786;2023-01-09T05:28:57;98565.53;;;5.46;90.02
74327;BME280;62745;51.060;13.786;2023-01-09T05:31:25;98557.78;;;5.44;89.72
74327;BME280;62745;51.060;13.786;2023-01-09T05:33:50;98559.59;;;5.37;89.71
74327;BME280;62745;51.060;13.786;2023-01-09T05:36:16;98557.97;;;5.36;89.54
74327;BME280;62745;51.060;13.786;2023-01-09T05:38:41;98556.13;;;5.30;89.26
74327;BME280;62745;51.060;13.786;2023-01-09T05:41:07;98557.13;;;5.29;90.04
74327;BME280;62745;51.060;13.786;2023-01-09T05:43:32;98553.06;;;5.27;89.86
74327;BME280;62745;51.060;13.786;2023-01-09T05:45:58;98547.75;;;5.27;89.26
74327;BME280;62745;51.060;13.786;2023-01-09T05:48:23;98554.69;;;5.21;89.17
74327;BME280;62745;51.060;13.786;2023-01-09T05:50:48;98565.63;;;5.11;89.77
74327;BME280;62745;51.060;13.786;2023-01-09T05:53:13;98559.13;;;5.07;89.42
74327;BME280;62745;51.060;13.786;2023-01-09T05:55:39;98561.56;;;5.09;89.44
74327;BME280;62745;51.060;13.786;2023-01-09T05:58:04;98563.59;;;5.07;88.96
74327;BME280;62745;51.060;13.786;2023-01-09T06:00:29;98566.19;;;5.00;89.29
74327;BME280;62745;51.060;13.786;2023-01-09T06:02:55;98565.16;;;4.95;90.07
74327;BME280;62745;51.060;13.786;2023-01-09T06:05:20;98562.09;;;4.91;90.28
74327;BME280;62745;51.060;13.786;2023-01-09T06:07:45;98560.28;;;4.92;90.29
74327;BME280;62745;51.060;13.786;2023-01-09T06:10:12;98556.81;;;4.91;89.75
74327;BME280;62745;51.060;13.786;2023-01-09T06:12:37;98556.59;;;4.93;90.21
74327;BME280;62745;51.060;13.786;2023-01-09T06:15:03;98551.13;;;5.01;89.47
74327;BME280;62745;51.060;13.786;2023-01-09T06:17:29;98561.34;;;5.10;89.39
74327;BME280;62745;51.060;13.786;2023-01-09T06:19:54;98566.63;;;5.04;89.03
74327;BME280;62745;51.060;13.786;2023-01-09T06:22:19;98568.06;;;5.06;88.35
74327;BME280;62745;51.060;13.786;2023-01-09T06:24:44;98564.97;;;5.03;88.72
74327;BME280;62745;51.060;13.786;2023-01-09T06:27:10;98561.34;;;5.04;88.17
74327;BME280;62745;51.060;13.786;2023-01-09T06:29:37;98576.22;;;5.05;88.16
74327;BME280;62745;51.060;13.786;2023-01-09T06:32:02;98564.97;;;5.03;89.06
74327;BME280;62745;51.060;13.786;2023-01-09T06:34:27;98572.75;;;5.04;88.38
74327;BME280;62745;51.060;13.786;2023-01-09T06:36:53;98581.72;;;5.10;88.32
74327;BME280;62745;51.060;13.786;2023-01-09T06:39:18;98578.44;;;5.08;88.69
74327;BME280;62745;51.060;13.786;2023-01-09T06:41:43;98577.44;;;5.09;88.17
74327;BME280;62745;51.060;13.786;2023-01-09T06:44:09;98587.00;;;5.10;87.88
74327;BME280;62745;51.060;13.786;2023-01-09T06:46:34;98602.06;;;5.09;87.50
74327;BME280;62745;51.060;13.786;2023-01-09T06:49:00;98588.22;;;5.07;88.16
74327;BME280;62745;51.060;13.786;2023-01-09T06:51:25;98594.75;;;5.11;87.53
74327;BME280;62745;51.060;13.786;2023-01-09T06:53:50;98592.91;;;5.12;87.84
74327;BME280;62745;51.060;13.786;2023-01-09T06:56:15;98592.31;;;5.10;87.54
74327;BME280;62745;51.060;13.786;2023-01-09T06:58:40;98596.19;;;5.14;86.87
74327;BME280;62745;51.060;13.786;2023-01-09T07:01:06;98595.78;;;5.17;87.13
74327;BME280;62745;51.060;13.786;2023-01-09T07:03:31;98604.94;;;5.14;87.29
74327;BME280;62745;51.060;13.786;2023-01-09T07:05:56;98597.59;;;5.17;87.03
74327;BME280;62745;51.060;13.786;2023-01-09T07:08:22;98572.50;;;4.99;87.13
74327;BME280;62745;51.060;13.786;2023-01-09T07:10:47;98594.38;;;5.21;87.75
74327;BME280;62745;51.060;13.786;2023-01-09T07:13:12;98604.97;;;5.21;87.05
74327;BME280;62745;51.060;13.786;2023-01-09T07:15:37;98596.03;;;5.22;86.73
74327;BME280;62745;51.060;13.786;2023-01-09T07:18:03;98597.88;;;5.35;86.11
74327;BME280;62745;51.060;13.786;2023-01-09T07:20:28;98597.03;;;5.28;86.32
74327;BME280;62745;51.060;13.786;2023-01-09T07:22:53;98597.88;;;5.28;85.68
74327;BME280;62745;51.060;13.786;2023-01-09T07:25:19;98597.25;;;5.26;86.87
74327;BME280;62745;51.060;13.786;2023-01-09T07:27:44;98596.44;;;5.26;86.29
74327;BME280;62745;51.060;13.786;2023-01-09T07:30:10;98585.22;;;5.24;85.81
74327;BME280;62745;51.060;13.786;2023-01-09T07:32:36;98599.47;;;5.23;86.40
74327;BME280;62745;51.060;13.786;2023-01-09T07:35:02;98600.50;;;5.22;86.25
74327;BME280;62745;51.060;13.786;2023-01-09T07:37:28;98600.31;;;5.23;85.98
74327;BME280;62745;51.060;13.786;2023-01-09T07:39:53;98589.72;;;5.23;85.96
74327;BME280;62745;51.060;13.786;2023-01-09T07:42:18;98603.56;;;5.25;86.09
74327;BME280;62745;51.060;13.786;2023-01-09T07:44:44;98600.56;;;5.41;85.34
74327;BME280;62745;51.060;13.786;2023-01-09T07:47:09;98602.78;;;5.38;84.90
74327;BME280;62745;51.060;13.786;2023-01-09T07:49:34;98608.72;;;5.40;85.35
74327;BME280;62745;51.060;13.786;2023-01-09T07:52:00;98611.97;;;5.49;85.39
74327;BME280;62745;51.060;13.786;2023-01-09T07:54:25;98611.38;;;5.53;84.60
74327;BME280;62745;51.060;13.786;2023-01-09T07:56:50;98616.09;;;5.58;84.98
74327;BME280;62745;51.060;13.786;2023-01-09T07:59:15;98591.59;;;5.49;83.85
74327;BME280;62745;51.060;13.786;2023-01-09T08:01:44;98610.78;;;5.64;84.38
74327;BME280;62745;51.060;13.786;2023-01-09T08:04:09;98620.41;;;5.72;84.24
74327;BME280;62745;51.060;13.786;2023-01-09T08:06:34;98616.72;;;5.73;83.97
74327;BME280;62745;51.060;13.786;2023-01-09T08:09:00;98616.53;;;5.74;84.02
74327;BME280;62745;51.060;13.786;2023-01-09T08:11:25;98605.69;;;5.69;84.02
74327;BME280;62745;51.060;13.786;2023-01-09T08:13:50;98632.25;;;5.89;83.03
74327;BME280;62745;51.060;13.786;2023-01-09T08:16:16;98627.19;;;5.94;82.74
74327;BME280;62745;51.060;13.786;2023-01-09T08:18:41;98622.28;;;5.98;82.84
74327;BME280;62745;51.060;13.786;2023-01-09T08:21:09;98621.72;;;6.22;82.81
74327;BME280;62745;51.060;13.786;2023-01-09T08:23:35;98615.38;;;6.23;82.07
74327;BME280;62745;51.060;13.786;2023-01-09T08:26:01;98615.56;;;6.28;81.61
74327;BME280;62745;51.060;13.786;2023-01-09T08:28:29;98619.22;;;6.34;82.09
74327;BME280;62745;51.060;13.786;2023-01-09T08:30:55;98623.53;;;6.42;81.93
74327;BME280;62745;51.060;13.786;2023-01-09T08:33:20;98618.44;;;6.40;81.27
74327;BME280;62745;51.060;13.786;2023-01-09T08:35:48;98620.63;;;6.63;81.04
74327;BME280;62745;51.060;13.786;2023-01-09T08:38:13;98632.47;;;6.67;80.44
74327;BME280;62745;51.060;13.786;2023-01-09T08:40:39;98636.75;;;6.68;80.18
74327;BME280;62745;51.060;13.786;2023-01-09T08:43:04;98638.00;;;6.72;80.32
74327;BME280;62745;51.060;13.786;2023-01-09T08:45:48;98644.72;;;6.75;80.39
74327;BME280;62745;51.060;13.786;2023-01-09T08:48:32;98654.06;;;6.90;79.95
74327;BME280;62745;51.060;13.786;2023-01-09T08:50:57;98661.81;;;6.99;79.96
74327;BME280;62745;51.060;13.786;2023-01-09T08:53:23;98648.31;;;7.00;79.46
74327;BME280;62745;51.060;13.786;2023-01-09T08:55:51;98651.19;;;6.99;81.00
74327;BME280;62745;51.060;13.786;2023-01-09T08:58:16;98655.66;;;7.05;80.57
74327;BME280;62745;51.060;13.786;2023-01-09T09:00:41;98642.41;;;6.98;79.58
74327;BME280;62745;51.060;13.786;2023-01-09T09:03:08;98652.81;;;7.06;79.50
74327;BME280;62745;51.060;13.786;2023-01-09T09:05:33;98652.97;;;7.18;80.19
74327;BME280;62745;51.060;13.786;2023-01-09T09:07:59;98651.13;;;7.18;80.55
74327;BME280;62745;51.060;13.786;2023-01-09T09:10:26;98652.16;;;7.17;81.04
74327;BME280;62745;51.060;13.786;2023-01-09T09:12:54;98654.59;;;7.19;81.48
74327;BME280;62745;51.060;13.786;2023-01-09T09:15:20;98652.44;;;7.47;80.76
74327;BME280;62745;51.060;13.786;2023-01-09T09:18:00;98659.38;;;7.48;80.97
74327;BME280;62745;51.060;13.786;2023-01-09T09:20:29;98671.44;;;7.58;79.12
74327;BME280;62745;51.060;13.786;2023-01-09T09:22:55;98674.16;;;7.82;78.46
74327;BME280;62745;51.060;13.786;2023-01-09T09:25:21;98673.75;;;7.79;79.29
74327;BME280;62745;51.060;13.786;2023-01-09T09:27:46;98678.25;;;7.78;80.02
74327;BME280;62745;51.060;13.786;2023-01-09T09:30:16;98684.56;;;7.84;80.29
74327;BME280;62745;51.060;13.786;2023-01-09T09:32:41;98686.38;;;7.90;79.70
74327;BME280;62745;51.060;13.786;2023-01-09T09:35:08;98686.13;;;7.98;79.46
74327;BME280;62745;51.060;13.786;2023-01-09T09:37:33;98690.28;;;8.19;79.06
74327;BME280;62745;51.060;13.786;2023-01-09T09:39:58;98697.28;;;8.13;78.61
74327;BME280;62745;51.060;13.786;2023-01-09T09:45:59;98687.81;;;8.24;79.55
74327;BME280;62745;51.060;13.786;2023-01-09T09:48:36;98689.16;;;8.40;79.35
74327;BME280;62745;51.060;13.786;2023-01-09T09:54:09;98693.88;;;8.38;80.46
74327;BME280;62745;51.060;13.786;2023-01-09T09:56:42;98696.72;;;8.43;81.40
74327;BME280;62745;51.060;13.786;2023-01-09T09:59:18;98700.72;;;8.52;80.72
74327;BME280;62745;51.060;13.786;2023-01-09T10:02:01;98692.50;;;8.54;80.87
74327;BME280;62745;51.060;13.786;2023-01-09T10:04:31;98694.75;;;8.57;81.37
74327;BME280;62745;51.060;13.786;2023-01-09T10:07:03;98691.44;;;8.61;80.91
74327;BME280;62745;51.060;13.786;2023-01-09T10:09:48;98699.59;;;8.66;81.34
74327;BME280;62745;51.060;13.786;2023-01-09T10:14:42;98697.28;;;8.70;81.24
74327;BME280;62745;51.060;13.786;2023-01-09T10:20:16;98712.63;;;8.74;81.18
74327;BME280;62745;51.060;13.786;2023-01-09T10:25:38;98716.25;;;8.55;82.49
74327;BME280;62745;51.060;13.786;2023-01-09T10:31:16;98724.94;;;8.44;82.97
74327;BME280;62745;51.060;13.786;2023-01-09T10:39:59;98752.84;;;8.35;85.19
74327;BME280;62745;51.060;13.786;2023-01-09T10:42:31;98761.66;;;8.29;85.71
74327;BME280;62745;51.060;13.786;2023-01-09T10:47:37;98768.72;;;8.10;88.65
74327;BME280;62745;51.060;13.786;2023-01-09T10:50:24;98780.66;;;7.88;91.05
74327;BME280;62745;51.060;13.786;2023-01-09T10:52:53;98794.63;;;7.70;92.54
74327;BME280;62745;51.060;13.786;2023-01-09T10:55:35;98783.06;;;7.44;90.14
74327;BME280;62745;51.060;13.786;2023-01-09T10:58:11;98785.53;;;7.19;91.96
74327;BME280;62745;51.060;13.786;2023-01-09T11:00:37;98794.75;;;7.04;93.30
74327;BME280;62745;51.060;13.786;2023-01-09T11:03:03;98792.31;;;7.09;93.84
74327;BME280;62745;51.060;13.786;2023-01-09T11:05:28;98798.22;;;7.11;93.22
74327;BME280;62745;51.060;13.786;2023-01-09T11:10:51;98803.91;;;7.21;92.73
74327;BME280;62745;51.060;13.786;2023-01-09T11:13:20;98802.50;;;7.25;92.88
74327;BME280;62745;51.060;13.786;2023-01-09T11:15:58;98796.53;;;7.36;91.75
74327;BME280;62745;51.060;13.786;2023-01-09T11:18:24;98790.63;;;7.41;89.31
74327;BME280;62745;51.060;13.786;2023-01-09T11:20:50;98803.47;;;7.50;89.47
74327;BME280;62745;51.060;13.786;2023-01-09T11:25:56;98809.19;;;7.61;87.70
74327;BME280;62745;51.060;13.786;2023-01-09T11:28:22;98798.31;;;7.69;87.52
74327;BME280;62745;51.060;13.786;2023-01-09T11:30:59;98802.19;;;7.79;84.95
74327;BME280;62745;51.060;13.786;2023-01-09T11:33:30;98807.66;;;7.84;85.66
74327;BME280;62745;51.060;13.786;2023-01-09T11:36:09;98806.25;;;7.82;83.40
74327;BME280;62745;51.060;13.786;2023-01-09T11:38:50;98813.19;;;7.90;83.35
74327;BME280;62745;51.060;13.786;2023-01-09T11:41:19;98811.13;;;7.92;82.84
74327;BME280;62745;51.060;13.786;2023-01-09T11:43:50;98808.06;;;7.88;82.37
74327;BME280;62745;51.060;13.786;2023-01-09T11:46:49;98808.69;;;7.90;81.27
74327;BME280;62745;51.060;13.786;2023-01-09T11:49:23;98804.78;;;7.93;81.04
74327;BME280;62745;51.060;13.786;2023-01-09T11:52:20;98800.06;;;7.95;81.20
74327;BME280;62745;51.060;13.786;2023-01-09T11:54:59;98801.09;;;7.94;79.54
74327;BME280;62745;51.060;13.786;2023-01-09T11:57:28;98802.72;;;7.95;78.81
74327;BME280;62745;51.060;13.786;2023-01-09T11:59:59;98811.69;;;8.00;79.43
74327;BME280;62745;51.060;13.786;2023-01-09T12:05:32;98793.69;;;8.09;77.90
74327;BME280;62745;51.060;13.786;2023-01-09T12:08:26;98793.63;;;8.15;77.72
74327;BME280;62745;51.060;13.786;2023-01-09T12:11:31;98790.09;;;8.35;77.56
74327;BME280;62745;51.060;13.786;2023-01-09T12:14:13;98798.50;;;8.63;76.04
74327;BME280;62745;51.060;13.786;2023-01-09T12:16:58;98802.00;;;8.89;75.25
74327;BME280;62745;51.060;13.786;2023-01-09T12:19:57;98809.06;;;8.77;74.96
74327;BME280;62745;51.060;13.786;2023-01-09T12:22:35;98819.44;;;8.85;75.80
74327;BME280;62745;51.060;13.786;2023-01-09T12:25:26;98820.16;;;8.98;75.04
74327;BME280;62745;51.060;13.786;2023-01-09T12:28:18;98824.31;;;8.94;73.23
74327;BME280;62745;51.060;13.786;2023-01-09T12:34:42;98814.03;;;8.98;74.83
74327;BME280;62745;51.060;13.786;2023-01-09T12:37:27;98821.28;;;8.91;73.50
74327;BME280;62745;51.060;13.786;2023-01-09T12:40:04;98835.13;;;8.99;72.60
74327;BME280;62745;51.060;13.786;2023-01-09T12:47:50;98848.13;;;8.51;75.08
74327;BME280;62745;51.060;13.786;2023-01-09T12:50:30;98843.53;;;8.65;73.36
74327;BME280;62745;51.060;13.786;2023-01-09T12:53:08;98842.13;;;8.62;74.10
74327;BME280;62745;51.060;13.786;2023-01-09T12:56:02;98846.94;;;8.47;73.97
74327;BME280;62745;51.060;13.786;2023-01-09T12:58:49;98846.75;;;8.42;74.04
74327;BME280;62745;51.060;13.786;2023-01-09T13:01:20;98848.63;;;8.35;75.10
74327;BME280;62745;51.060;13.786;2023-01-09T13:04:11;98856.16;;;8.38;74.17
74327;BME280;62745;51.060;13.786;2023-01-09T13:06:43;98866.03;;;8.69;73.89
74327;BME280;62745;51.060;13.786;2023-01-09T13:09:25;98876.25;;;8.79;73.98
74327;BME280;62745;51.060;13.786;2023-01-09T13:12:00;98869.00;;;8.86;72.72
74327;BME280;62745;51.060;13.786;2023-01-09T13:14:45;98863.47;;;8.87;71.97
74327;BME280;62745;51.060;13.786;2023-01-09T13:17:22;98863.34;;;8.76;73.16
74327;BME280;62745;51.060;13.786;2023-01-09T13:19:48;98866.31;;;8.61;73.29
74327;BME280;62745;51.060;13.786;2023-01-09T13:22:14;98862.41;;;8.63;73.02
74327;BME280;62745;51.060;13.786;2023-01-09T13:25:19;98872.06;;;8.58;73.28
74327;BME280;62745;51.060;13.786;2023-01-09T13:27:55;98873.69;;;8.59;73.74
74327;BME280;62745;51.060;13.786;2023-01-09T13:33:15;98864.91;;;8.52;73.18
74327;BME280;62745;51.060;13.786;2023-01-09T13:35:50;98872.72;;;8.47;72.67
74327;BME280;62745;51.060;13.786;2023-01-09T13:38:19;98862.13;;;8.40;72.67
74327;BME280;62745;51.060;13.786;2023-01-09T13:40:46;98867.22;;;8.41;73.02
74327;BME280;62745;51.060;13.786;2023-01-09T13:43:11;98876.44;;;8.39;72.21
74327;BME280;62745;51.060;13.786;2023-01-09T13:45:39;98881.34;;;8.42;72.63
74327;BME280;62745;51.060;13.786;2023-01-09T13:50:41;98900.81;;;8.36;73.01
74327;BME280;62745;51.060;13.786;2023-01-09T13:53:42;98901.81;;;8.41;73.40
74327;BME280;62745;51.060;13.786;2023-01-09T13:56:07;98912.63;;;8.47;72.54
74327;BME280;62745;51.060;13.786;2023-01-09T14:01:04;98925.13;;;8.39;72.56
74327;BME280;62745;51.060;13.786;2023-01-09T14:03:35;98928.81;;;8.38;73.48
74327;BME280;62745;51.060;13.786;2023-01-09T14:06:04;98930.06;;;8.36;73.72
74327;BME280;62745;51.060;13.786;2023-01-09T14:08:33;98933.34;;;8.38;73.66
74327;BME280;62745;51.060;13.786;2023-01-09T14:11:00;98942.13;;;8.38;73.68